sensor_id;sensor_type;location;lat;lon;timestamp;temperature;humidity
4324;DHT22;2175;51.018;6.994;2022-08-03T00:01:37;20.40;99.90
4324;DHT22;2175;51.018;6.994;2022-08-03T00:04:04;20.30;99.90
4324;DHT22;2175;51.018;6.994;2022-08-03T00:06:30;20.20;99.90
4324;DHT22;2175;51.018;6.994;2022-08-03T00:08:56;20.20;99.90
4324;DHT22;2175;51.018;6.994;2022-08-03T00:11:22;20.10;99.90
4324;DHT22;2175;51.018;6.994;2022-08-03T00:13:48;20.10;99.90
4324;DHT22;2175;51.018;6.994;2022-08-03T00:16:14;20.10;99.90
4324;DHT22;2175;51.018;6.994;2022-08-03T00:18:39;20.20;99.90
4324;DHT22;2175;51.018;6.994;2022-08-03T00:21:05;20.20;99.90
4324;DHT22;2175;51.018;6.994;2022-08-03T00:23:31;20.20;99.90
4324;DHT22;2175;51.018;6.994;2022-08-03T00:25:57;20.20;99.90
4324;DHT22;2175;51.018;6.994;2022-08-03T00:28:23;20.10;99.90
4324;DHT22;2175;51.018;6.994;2022-08-03T00:30:48;20.10;99.90
4324;DHT22;2175;51.018;6.994;2022-08-03T00:33:14;20.10;99.90
4324;DHT22;2175;51.018;6.994;2022-08-03T00:35:40;20.10;99.90
4324;DHT22;2175;51.018;6.994;2022-08-03T00:38:06;20.00;99.90
4324;DHT22;2175;51.018;6.994;2022-08-03T00:40:33;20.00;99.90
4324;DHT22;2175;51.018;6.994;2022-08-03T00:43:01;19.90;99.90
4324;DHT22;2175;51.018;6.994;2022-08-03T00:45:29;19.90;99.90
4324;DHT22;2175;51.018;6.994;2022-08-03T00:47:55;19.80;99.90
4324;DHT22;2175;51.018;6.994;2022-08-03T00:50:22;19.80;99.90
4324;DHT22;2175;51.018;6.994;2022-08-03T00:52:53;19.80;99.90
4324;DHT22;2175;51.018;6.994;2022-08-03T00:55:19;19.90;99.90
4324;DHT22;2175;51.018;6.994;2022-08-03T00:57:45;19.90;99.90
4324;DHT22;2175;51.018;6.994;2022-08-03T01:00:13;19.80;99.90
4324;DHT22;2175;51.018;6.994;2022-08-03T01:02:39;19.80;99.90
4324;DHT22;2175;51.018;6.994;2022-08-03T01:05:06;19.70;99.90
4324;DHT22;2175;51.018;6.994;2022-08-03T01:16:11;19.50;99.90
4324;DHT22;2175;51.018;6.994;2022-08-03T01:18:43;19.50;99.90
4324;DHT22;2175;51.018;6.994;2022-08-03T01:21:20;19.40;99.90
4324;DHT22;2175;51.018;6.994;2022-08-03T01:35:09;19.20;99.90
4324;DHT22;2175;51.018;6.994;2022-08-03T01:37:52;19.20;99.90
4324;DHT22;2175;51.018;6.994;2022-08-03T01:40:19;19.20;99.90
4324;DHT22;2175;51.018;6.994;2022-08-03T01:42:46;19.30;99.90
4324;DHT22;2175;51.018;6.994;2022-08-03T01:45:15;19.20;99.90
4324;DHT22;2175;51.018;6.994;2022-08-03T01:47:44;19.20;99.90
4324;DHT22;2175;51.018;6.994;2022-08-03T01:50:12;19.10;99.90
4324;DHT22;2175;51.018;6.994;2022-08-03T01:52:43;19.10;99.90
4324;DHT22;2175;51.018;6.994;2022-08-03T01:55:10;19.10;99.90
4324;DHT22;2175;51.018;6.994;2022-08-03T01:57:37;19.10;99.90
4324;DHT22;2175;51.018;6.994;2022-08-03T02:00:04;19.00;99.90
4324;DHT22;2175;51.018;6.994;2022-08-03T02:02:31;19.00;99.90
4324;DHT22;2175;51.018;6.994;2022-08-03T02:04:59;19.00;99.90
4324;DHT22;2175;51.018;6.994;2022-08-03T02:07:25;18.90;99.90
4324;DHT22;2175;51.018;6.994;2022-08-03T02:09:53;18.90;99.90
4324;DHT22;2175;51.018;6.994;2022-08-03T02:12:22;18.90;99.90
4324;DHT22;2175;51.018;6.994;2022-08-03T02:14:50;18.80;99.90
4324;DHT22;2175;51.018;6.994;2022-08-03T02:17:17;18.80;99.90
4324;DHT22;2175;51.018;6.994;2022-08-03T02:19:44;18.90;99.90
4324;DHT22;2175;51.018;6.994;2022-08-03T02:22:12;18.90;99.90
4324;DHT22;2175;51.018;6.994;2022-08-03T02:24:38;18.90;99.90
4324;DHT22;2175;51.018;6.994;2022-08-03T02:27:24;18.90;99.90
4324;DHT22;2175;51.018;6.994;2022-08-03T02:30:04;18.90;99.90
4324;DHT22;2175;51.018;6.994;2022-08-03T02:32:34;18.80;99.90
4324;DHT22;2175;51.018;6.994;2022-08-03T02:35:02;18.80;99.90
4324;DHT22;2175;51.018;6.994;2022-08-03T02:37:33;18.70;99.90
4324;DHT22;2175;51.018;6.994;2022-08-03T02:40:04;18.60;99.90
4324;DHT22;2175;51.018;6.994;2022-08-03T02:42:34;18.60;99.90
4324;DHT22;2175;51.018;6.994;2022-08-03T02:45:02;18.50;99.90
4324;DHT22;2175;51.018;6.994;2022-08-03T02:47:30;18.50;99.90
4324;DHT22;2175;51.018;6.994;2022-08-03T02:49:57;18.50;99.90
4324;DHT22;2175;51.018;6.994;2022-08-03T02:52:27;18.40;99.90
4324;DHT22;2175;51.018;6.994;2022-08-03T02:54:56;18.40;99.90
4324;DHT22;2175;51.018;6.994;2022-08-03T02:57:25;18.40;99.90
4324;DHT22;2175;51.018;6.994;2022-08-03T02:59:53;18.40;99.90
4324;DHT22;2175;51.018;6.994;2022-08-03T03:02:20;18.30;99.90
4324;DHT22;2175;51.018;6.994;2022-08-03T03:04:47;18.30;99.90
4324;DHT22;2175;51.018;6.994;2022-08-03T03:07:15;18.30;99.90
4324;DHT22;2175;51.018;6.994;2022-08-03T03:09:42;18.30;99.90
4324;DHT22;2175;51.018;6.994;2022-08-03T03:12:09;18.30;99.90
4324;DHT22;2175;51.018;6.994;2022-08-03T03:14:37;18.30;99.90
4324;DHT22;2175;51.018;6.994;2022-08-03T03:17:03;18.40;99.90
4324;DHT22;2175;51.018;6.994;2022-08-03T03:19:31;18.40;99.90
4324;DHT22;2175;51.018;6.994;2022-08-03T03:21:59;18.30;99.90
4324;DHT22;2175;51.018;6.994;2022-08-03T03:24:27;18.40;99.90
4324;DHT22;2175;51.018;6.994;2022-08-03T03:26:53;18.30;99.90
4324;DHT22;2175;51.018;6.994;2022-08-03T03:29:20;18.30;99.90
4324;DHT22;2175;51.018;6.994;2022-08-03T03:31:46;18.30;99.90
4324;DHT22;2175;51.018;6.994;2022-08-03T03:34:12;18.30;99.90
4324;DHT22;2175;51.018;6.994;2022-08-03T03:36:38;18.30;99.90
4324;DHT22;2175;51.018;6.994;2022-08-03T03:39:04;18.30;99.90
4324;DHT22;2175;51.018;6.994;2022-08-03T03:41:29;18.30;99.90
4324;DHT22;2175;51.018;6.994;2022-08-03T03:43:55;18.30;99.90
4324;DHT22;2175;51.018;6.994;2022-08-03T03:46:21;18.30;99.90
4324;DHT22;2175;51.018;6.994;2022-08-03T03:48:47;18.30;99.90
4324;DHT22;2175;51.018;6.994;2022-08-03T03:51:14;18.30;99.90
4324;DHT22;2175;51.018;6.994;2022-08-03T03:53:40;18.40;99.90
4324;DHT22;2175;51.018;6.994;2022-08-03T03:56:06;18.30;99.90
4324;DHT22;2175;51.018;6.994;2022-08-03T03:58:32;18.20;99.90
4324;DHT22;2175;51.018;6.994;2022-08-03T04:00:58;18.20;99.90
4324;DHT22;2175;51.018;6.994;2022-08-03T04:03:24;18.20;99.90
4324;DHT22;2175;51.018;6.994;2022-08-03T04:05:49;18.20;99.90
4324;DHT22;2175;51.018;6.994;2022-08-03T04:08:34;18.20;99.90
4324;DHT22;2175;51.018;6.994;2022-08-03T04:11:30;18.20;99.90
4324;DHT22;2175;51.018;6.994;2022-08-03T04:14:12;18.20;99.90
4324;DHT22;2175;51.018;6.994;2022-08-03T04:16:41;18.20;99.90
4324;DHT22;2175;51.018;6.994;2022-08-03T04:19:11;18.20;99.90
4324;DHT22;2175;51.018;6.994;2022-08-03T04:21:41;18.30;99.90
4324;DHT22;2175;51.018;6.994;2022-08-03T04:24:08;18.30;99.90
4324;DHT22;2175;51.018;6.994;2022-08-03T04:26:38;18.30;99.90
4324;DHT22;2175;51.018;6.994;2022-08-03T04:29:05;18.30;99.90
4324;DHT22;2175;51.018;6.994;2022-08-03T04:31:32;18.40;99.90
4324;DHT22;2175;51.018;6.994;2022-08-03T04:33:58;18.30;99.90
4324;DHT22;2175;51.018;6.994;2022-08-03T04:36:26;18.30;99.90
4324;DHT22;2175;51.018;6.994;2022-08-03T04:39:17;18.40;99.90
4324;DHT22;2175;51.018;6.994;2022-08-03T04:41:44;18.30;99.90
4324;DHT22;2175;51.018;6.994;2022-08-03T04:44:12;18.30;99.90
4324;DHT22;2175;51.018;6.994;2022-08-03T04:46:39;18.40;99.90
4324;DHT22;2175;51.018;6.994;2022-08-03T04:49:05;18.50;99.90
4324;DHT22;2175;51.018;6.994;2022-08-03T04:51:32;18.60;99.90
4324;DHT22;2175;51.018;6.994;2022-08-03T04:54:03;18.70;99.90
4324;DHT22;2175;51.018;6.994;2022-08-03T04:56:28;18.70;99.90
4324;DHT22;2175;51.018;6.994;2022-08-03T04:58:54;18.80;99.90
4324;DHT22;2175;51.018;6.994;2022-08-03T05:01:20;18.80;99.90
4324;DHT22;2175;51.018;6.994;2022-08-03T05:03:47;18.90;99.90
4324;DHT22;2175;51.018;6.994;2022-08-03T05:06:12;18.90;99.90
4324;DHT22;2175;51.018;6.994;2022-08-03T05:08:38;18.90;99.90
4324;DHT22;2175;51.018;6.994;2022-08-03T05:11:04;18.90;99.90
4324;DHT22;2175;51.018;6.994;2022-08-03T05:13:30;18.90;99.90
4324;DHT22;2175;51.018;6.994;2022-08-03T05:15:55;19.00;99.90
4324;DHT22;2175;51.018;6.994;2022-08-03T05:18:21;19.10;99.90
4324;DHT22;2175;51.018;6.994;2022-08-03T05:20:47;19.20;99.90
4324;DHT22;2175;51.018;6.994;2022-08-03T05:23:12;19.10;99.90
4324;DHT22;2175;51.018;6.994;2022-08-03T05:25:38;19.10;99.90
4324;DHT22;2175;51.018;6.994;2022-08-03T05:28:03;19.20;99.90
4324;DHT22;2175;51.018;6.994;2022-08-03T05:30:29;19.30;99.90
4324;DHT22;2175;51.018;6.994;2022-08-03T05:32:55;19.30;99.90
4324;DHT22;2175;51.018;6.994;2022-08-03T05:35:21;19.40;99.90
4324;DHT22;2175;51.018;6.994;2022-08-03T05:37:46;19.40;99.90
4324;DHT22;2175;51.018;6.994;2022-08-03T05:40:12;19.20;99.90
4324;DHT22;2175;51.018;6.994;2022-08-03T05:42:38;19.20;99.90
4324;DHT22;2175;51.018;6.994;2022-08-03T05:45:04;19.40;99.90
4324;DHT22;2175;51.018;6.994;2022-08-03T05:47:42;19.50;99.90
4324;DHT22;2175;51.018;6.994;2022-08-03T05:50:09;19.60;99.90
4324;DHT22;2175;51.018;6.994;2022-08-03T05:52:35;19.70;99.90
4324;DHT22;2175;51.018;6.994;2022-08-03T05:55:02;19.70;99.90
4324;DHT22;2175;51.018;6.994;2022-08-03T05:57:28;19.90;99.90
4324;DHT22;2175;51.018;6.994;2022-08-03T05:59:53;20.00;99.90
4324;DHT22;2175;51.018;6.994;2022-08-03T06:02:19;20.00;99.90
4324;DHT22;2175;51.018;6.994;2022-08-03T06:04:44;20.00;99.90
4324;DHT22;2175;51.018;6.994;2022-08-03T06:07:12;20.10;99.90
4324;DHT22;2175;51.018;6.994;2022-08-03T06:09:37;20.10;99.90
4324;DHT22;2175;51.018;6.994;2022-08-03T06:12:03;20.30;99.90
4324;DHT22;2175;51.018;6.994;2022-08-03T06:14:29;20.40;99.90
4324;DHT22;2175;51.018;6.994;2022-08-03T06:16:55;20.60;99.90
4324;DHT22;2175;51.018;6.994;2022-08-03T06:19:20;20.70;99.90
4324;DHT22;2175;51.018;6.994;2022-08-03T06:21:50;20.80;99.90
4324;DHT22;2175;51.018;6.994;2022-08-03T06:24:15;20.90;99.90
4324;DHT22;2175;51.018;6.994;2022-08-03T06:26:41;21.00;99.90
4324;DHT22;2175;51.018;6.994;2022-08-03T06:29:07;21.10;99.90
4324;DHT22;2175;51.018;6.994;2022-08-03T06:31:32;21.20;99.90
4324;DHT22;2175;51.018;6.994;2022-08-03T06:33:58;21.30;99.90
4324;DHT22;2175;51.018;6.994;2022-08-03T06:36:24;21.30;99.90
4324;DHT22;2175;51.018;6.994;2022-08-03T06:38:59;21.40;99.90
4324;DHT22;2175;51.018;6.994;2022-08-03T06:41:25;21.40;99.90
4324;DHT22;2175;51.018;6.994;2022-08-03T06:43:51;21.60;99.90
4324;DHT22;2175;51.018;6.994;2022-08-03T06:46:17;21.80;99.90
4324;DHT22;2175;51.018;6.994;2022-08-03T06:48:43;21.90;99.90
4324;DHT22;2175;51.018;6.994;2022-08-03T06:51:09;22.00;99.90
4324;DHT22;2175;51.018;6.994;2022-08-03T06:53:35;22.10;99.90
4324;DHT22;2175;51.018;6.994;2022-08-03T06:56:00;22.10;99.90
4324;DHT22;2175;51.018;6.994;2022-08-03T06:58:26;22.10;99.90
4324;DHT22;2175;51.018;6.994;2022-08-03T07:00:52;22.10;99.90
4324;DHT22;2175;51.018;6.994;2022-08-03T07:03:18;22.40;99.90
4324;DHT22;2175;51.018;6.994;2022-08-03T07:05:43;22.40;99.90
4324;DHT22;2175;51.018;6.994;2022-08-03T07:08:13;22.50;99.90
4324;DHT22;2175;51.018;6.994;2022-08-03T07:10:38;22.50;99.90
4324;DHT22;2175;51.018;6.994;2022-08-03T07:13:05;22.60;99.90
4324;DHT22;2175;51.018;6.994;2022-08-03T07:15:31;22.80;99.90
4324;DHT22;2175;51.018;6.994;2022-08-03T07:17:56;23.00;99.90
4324;DHT22;2175;51.018;6.994;2022-08-03T07:20:22;23.50;99.90
4324;DHT22;2175;51.018;6.994;2022-08-03T07:22:48;24.10;99.90
4324;DHT22;2175;51.018;6.994;2022-08-03T07:25:14;24.40;99.90
4324;DHT22;2175;51.018;6.994;2022-08-03T07:27:44;24.60;99.90
4324;DHT22;2175;51.018;6.994;2022-08-03T07:30:10;25.00;99.90
4324;DHT22;2175;51.018;6.994;2022-08-03T07:32:36;25.40;99.90
4324;DHT22;2175;51.018;6.994;2022-08-03T07:35:03;25.80;99.90
4324;DHT22;2175;51.018;6.994;2022-08-03T07:37:29;26.00;99.90
4324;DHT22;2175;51.018;6.994;2022-08-03T07:39:55;26.10;99.90
4324;DHT22;2175;51.018;6.994;2022-08-03T07:42:21;26.30;99.90
4324;DHT22;2175;51.018;6.994;2022-08-03T07:44:48;26.50;99.90
4324;DHT22;2175;51.018;6.994;2022-08-03T07:47:18;26.50;99.90
4324;DHT22;2175;51.018;6.994;2022-08-03T07:49:44;26.60;99.90
4324;DHT22;2175;51.018;6.994;2022-08-03T07:52:09;26.90;99.90
4324;DHT22;2175;51.018;6.994;2022-08-03T07:54:53;27.00;99.90
4324;DHT22;2175;51.018;6.994;2022-08-03T07:57:19;27.10;99.90
4324;DHT22;2175;51.018;6.994;2022-08-03T07:59:45;27.10;99.90
4324;DHT22;2175;51.018;6.994;2022-08-03T08:02:12;27.00;99.90
4324;DHT22;2175;51.018;6.994;2022-08-03T08:04:37;26.70;99.90
4324;DHT22;2175;51.018;6.994;2022-08-03T08:07:03;26.70;99.90
4324;DHT22;2175;51.018;6.994;2022-08-03T08:09:28;26.70;99.90
4324;DHT22;2175;51.018;6.994;2022-08-03T08:11:55;26.80;99.90
4324;DHT22;2175;51.018;6.994;2022-08-03T08:14:20;26.90;99.90
4324;DHT22;2175;51.018;6.994;2022-08-03T08:16:46;26.90;99.90
4324;DHT22;2175;51.018;6.994;2022-08-03T08:19:12;26.90;99.90
4324;DHT22;2175;51.018;6.994;2022-08-03T08:21:41;26.80;99.90
4324;DHT22;2175;51.018;6.994;2022-08-03T08:24:07;26.90;99.90
4324;DHT22;2175;51.018;6.994;2022-08-03T08:26:32;27.50;99.90
4324;DHT22;2175;51.018;6.994;2022-08-03T08:28:58;27.70;99.90
4324;DHT22;2175;51.018;6.994;2022-08-03T08:31:24;27.40;99.90
4324;DHT22;2175;51.018;6.994;2022-08-03T08:33:49;27.40;99.90
4324;DHT22;2175;51.018;6.994;2022-08-03T08:36:15;27.50;99.90
4324;DHT22;2175;51.018;6.994;2022-08-03T08:38:41;28.20;99.90
4324;DHT22;2175;51.018;6.994;2022-08-03T08:41:13;28.20;99.90
4324;DHT22;2175;51.018;6.994;2022-08-03T08:43:40;28.10;99.90
4324;DHT22;2175;51.018;6.994;2022-08-03T08:46:07;28.10;99.90
4324;DHT22;2175;51.018;6.994;2022-08-03T08:48:35;28.30;99.90
4324;DHT22;2175;51.018;6.994;2022-08-03T08:51:04;28.10;99.90
4324;DHT22;2175;51.018;6.994;2022-08-03T08:53:35;27.90;99.90
4324;DHT22;2175;51.018;6.994;2022-08-03T08:56:01;27.70;99.90
4324;DHT22;2175;51.018;6.994;2022-08-03T08:58:36;27.40;99.90
4324;DHT22;2175;51.018;6.994;2022-08-03T09:01:03;27.70;99.90
4324;DHT22;2175;51.018;6.994;2022-08-03T09:03:30;28.00;99.90
4324;DHT22;2175;51.018;6.994;2022-08-03T09:06:01;28.00;99.90
4324;DHT22;2175;51.018;6.994;2022-08-03T09:08:28;28.50;99.90
4324;DHT22;2175;51.018;6.994;2022-08-03T09:10:54;28.90;99.90
4324;DHT22;2175;51.018;6.994;2022-08-03T09:13:20;28.50;99.90
4324;DHT22;2175;51.018;6.994;2022-08-03T09:15:45;28.40;99.90
4324;DHT22;2175;51.018;6.994;2022-08-03T09:18:11;29.00;99.90
4324;DHT22;2175;51.018;6.994;2022-08-03T09:20:38;28.90;99.90
4324;DHT22;2175;51.018;6.994;2022-08-03T09:23:07;28.70;99.90
4324;DHT22;2175;51.018;6.994;2022-08-03T09:25:36;28.50;99.90
4324;DHT22;2175;51.018;6.994;2022-08-03T09:28:16;28.40;99.90
4324;DHT22;2175;51.018;6.994;2022-08-03T09:30:44;28.20;99.90
4324;DHT22;2175;51.018;6.994;2022-08-03T09:33:13;28.20;99.90
4324;DHT22;2175;51.018;6.994;2022-08-03T09:35:41;28.40;99.90
4324;DHT22;2175;51.018;6.994;2022-08-03T09:38:11;28.90;99.90
4324;DHT22;2175;51.018;6.994;2022-08-03T09:40:37;28.70;99.90
4324;DHT22;2175;51.018;6.994;2022-08-03T09:43:03;28.20;99.90
4324;DHT22;2175;51.018;6.994;2022-08-03T09:45:28;28.30;99.90
4324;DHT22;2175;51.018;6.994;2022-08-03T09:47:54;28.60;99.90
4324;DHT22;2175;51.018;6.994;2022-08-03T09:50:21;28.60;99.90
4324;DHT22;2175;51.018;6.994;2022-08-03T09:52:46;28.60;99.90
4324;DHT22;2175;51.018;6.994;2022-08-03T09:55:16;28.60;99.90
4324;DHT22;2175;51.018;6.994;2022-08-03T09:57:43;29.00;99.90
4324;DHT22;2175;51.018;6.994;2022-08-03T10:00:14;28.90;99.90
4324;DHT22;2175;51.018;6.994;2022-08-03T10:02:42;29.10;99.90
4324;DHT22;2175;51.018;6.994;2022-08-03T10:05:10;29.50;99.90
4324;DHT22;2175;51.018;6.994;2022-08-03T10:07:44;29.40;99.90
4324;DHT22;2175;51.018;6.994;2022-08-03T10:10:10;30.00;99.90
4324;DHT22;2175;51.018;6.994;2022-08-03T10:12:37;29.50;99.90
4324;DHT22;2175;51.018;6.994;2022-08-03T10:15:04;29.40;99.90
4324;DHT22;2175;51.018;6.994;2022-08-03T10:17:30;29.00;99.90
4324;DHT22;2175;51.018;6.994;2022-08-03T10:19:55;28.70;99.90
4324;DHT22;2175;51.018;6.994;2022-08-03T10:22:26;28.10;99.90
4324;DHT22;2175;51.018;6.994;2022-08-03T10:24:59;27.90;99.90
4324;DHT22;2175;51.018;6.994;2022-08-03T10:27:26;27.90;99.90
4324;DHT22;2175;51.018;6.994;2022-08-03T10:29:59;29.10;99.90
4324;DHT22;2175;51.018;6.994;2022-08-03T10:32:29;29.00;99.90
4324;DHT22;2175;51.018;6.994;2022-08-03T10:35:04;28.80;99.90
4324;DHT22;2175;51.018;6.994;2022-08-03T10:37:31;28.60;99.90
4324;DHT22;2175;51.018;6.994;2022-08-03T10:39:59;28.30;99.90
4324;DHT22;2175;51.018;6.994;2022-08-03T10:42:27;28.10;99.90
4324;DHT22;2175;51.018;6.994;2022-08-03T10:45:08;28.10;99.90
4324;DHT22;2175;51.018;6.994;2022-08-03T10:47:38;28.20;99.90
4324;DHT22;2175;51.018;6.994;2022-08-03T10:50:05;28.10;99.90
4324;DHT22;2175;51.018;6.994;2022-08-03T10:52:31;27.80;99.90
4324;DHT22;2175;51.018;6.994;2022-08-03T10:54:57;27.50;99.90
4324;DHT22;2175;51.018;6.994;2022-08-03T10:57:52;28.20;99.90
4324;DHT22;2175;51.018;6.994;2022-08-03T11:00:23;28.20;99.90
4324;DHT22;2175;51.018;6.994;2022-08-03T11:03:10;28.10;99.90
4324;DHT22;2175;51.018;6.994;2022-08-03T11:05:43;28.20;99.90
4324;DHT22;2175;51.018;6.994;2022-08-03T11:08:23;27.90;99.90
4324;DHT22;2175;51.018;6.994;2022-08-03T11:10:54;27.50;99.90
4324;DHT22;2175;51.018;6.994;2022-08-03T11:13:22;27.20;99.90
4324;DHT22;2175;51.018;6.994;2022-08-03T11:15:52;27.10;99.90
4324;DHT22;2175;51.018;6.994;2022-08-03T11:18:18;27.70;99.90
4324;DHT22;2175;51.018;6.994;2022-08-03T11:20:58;27.90;99.90
4324;DHT22;2175;51.018;6.994;2022-08-03T11:23:45;27.70;99.90
4324;DHT22;2175;51.018;6.994;2022-08-03T11:26:18;27.10;99.90
4324;DHT22;2175;51.018;6.994;2022-08-03T11:28:46;27.30;99.90
4324;DHT22;2175;51.018;6.994;2022-08-03T11:34:09;27.20;99.90
4324;DHT22;2175;51.018;6.994;2022-08-03T11:39:42;26.30;99.90
4324;DHT22;2175;51.018;6.994;2022-08-03T11:44:52;26.10;99.90
4324;DHT22;2175;51.018;6.994;2022-08-03T11:47:19;25.90;99.90
4324;DHT22;2175;51.018;6.994;2022-08-03T11:49:49;25.80;99.90
4324;DHT22;2175;51.018;6.994;2022-08-03T11:52:17;26.80;99.90
4324;DHT22;2175;51.018;6.994;2022-08-03T11:54:43;27.40;99.90
4324;DHT22;2175;51.018;6.994;2022-08-03T11:57:09;27.00;99.90
4324;DHT22;2175;51.018;6.994;2022-08-03T11:59:36;26.60;99.90
4324;DHT22;2175;51.018;6.994;2022-08-03T12:02:09;26.50;99.90
4324;DHT22;2175;51.018;6.994;2022-08-03T12:04:57;26.70;99.90
4324;DHT22;2175;51.018;6.994;2022-08-03T12:07:27;26.50;99.90
4324;DHT22;2175;51.018;6.994;2022-08-03T12:10:11;26.50;99.90
4324;DHT22;2175;51.018;6.994;2022-08-03T12:12:37;26.10;99.90
4324;DHT22;2175;51.018;6.994;2022-08-03T12:15:04;25.90;99.90
4324;DHT22;2175;51.018;6.994;2022-08-03T12:17:34;25.90;99.90
4324;DHT22;2175;51.018;6.994;2022-08-03T12:20:01;25.70;99.90
4324;DHT22;2175;51.018;6.994;2022-08-03T12:22:34;25.60;99.90
4324;DHT22;2175;51.018;6.994;2022-08-03T12:25:02;25.80;99.90
4324;DHT22;2175;51.018;6.994;2022-08-03T12:27:28;25.60;99.90
4324;DHT22;2175;51.018;6.994;2022-08-03T12:29:57;25.70;99.90
4324;DHT22;2175;51.018;6.994;2022-08-03T12:32:24;25.80;99.90
4324;DHT22;2175;51.018;6.994;2022-08-03T12:34:52;25.90;99.90
4324;DHT22;2175;51.018;6.994;2022-08-03T12:37:19;26.00;99.90
4324;DHT22;2175;51.018;6.994;2022-08-03T12:39:50;26.20;99.90
4324;DHT22;2175;51.018;6.994;2022-08-03T12:42:16;26.20;99.90
4324;DHT22;2175;51.018;6.994;2022-08-03T12:44:42;26.10;99.90
4324;DHT22;2175;51.018;6.994;2022-08-03T12:47:07;26.00;99.90
4324;DHT22;2175;51.018;6.994;2022-08-03T12:49:48;25.90;99.90
4324;DHT22;2175;51.018;6.994;2022-08-03T12:52:15;25.90;99.90
4324;DHT22;2175;51.018;6.994;2022-08-03T12:54:40;25.90;99.90
4324;DHT22;2175;51.018;6.994;2022-08-03T12:57:09;25.80;99.90
4324;DHT22;2175;51.018;6.994;2022-08-03T12:59:37;25.80;99.90
4324;DHT22;2175;51.018;6.994;2022-08-03T13:04:38;25.70;99.90
4324;DHT22;2175;51.018;6.994;2022-08-03T13:07:06;26.00;99.90
4324;DHT22;2175;51.018;6.994;2022-08-03T13:09:47;25.90;99.90
4324;DHT22;2175;51.018;6.994;2022-08-03T13:12:13;25.80;99.90
4324;DHT22;2175;51.018;6.994;2022-08-03T13:14:40;25.70;99.90
4324;DHT22;2175;51.018;6.994;2022-08-03T13:17:07;25.80;99.90
4324;DHT22;2175;51.018;6.994;2022-08-03T13:19:37;25.90;99.90
4324;DHT22;2175;51.018;6.994;2022-08-03T13:22:13;25.90;99.90
4324;DHT22;2175;51.018;6.994;2022-08-03T13:24:40;25.90;99.90
4324;DHT22;2175;51.018;6.994;2022-08-03T13:27:07;26.00;99.90
4324;DHT22;2175;51.018;6.994;2022-08-03T13:29:33;25.90;99.90
4324;DHT22;2175;51.018;6.994;2022-08-03T13:32:00;25.70;99.90
4324;DHT22;2175;51.018;6.994;2022-08-03T13:34:26;25.60;99.90
4324;DHT22;2175;51.018;6.994;2022-08-03T13:36:52;25.50;99.90
4324;DHT22;2175;51.018;6.994;2022-08-03T13:39:18;25.50;99.90
4324;DHT22;2175;51.018;6.994;2022-08-03T13:41:45;25.70;99.90
4324;DHT22;2175;51.018;6.994;2022-08-03T13:44:11;25.90;99.90
4324;DHT22;2175;51.018;6.994;2022-08-03T13:46:37;25.90;99.90
4324;DHT22;2175;51.018;6.994;2022-08-03T13:49:03;25.90;99.90
4324;DHT22;2175;51.018;6.994;2022-08-03T13:51:28;26.20;99.90
4324;DHT22;2175;51.018;6.994;2022-08-03T13:53:54;26.30;99.90
4324;DHT22;2175;51.018;6.994;2022-08-03T13:56:20;26.20;99.90
4324;DHT22;2175;51.018;6.994;2022-08-03T13:58:46;26.20;99.90
4324;DHT22;2175;51.018;6.994;2022-08-03T14:01:12;26.60;99.90
4324;DHT22;2175;51.018;6.994;2022-08-03T14:03:38;26.70;99.90
4324;DHT22;2175;51.018;6.994;2022-08-03T14:06:03;26.60;99.90
4324;DHT22;2175;51.018;6.994;2022-08-03T14:08:29;26.70;99.90
4324;DHT22;2175;51.018;6.994;2022-08-03T14:10:55;26.60;99.90
4324;DHT22;2175;51.018;6.994;2022-08-03T14:13:20;26.20;99.90
4324;DHT22;2175;51.018;6.994;2022-08-03T14:15:47;25.90;99.90
4324;DHT22;2175;51.018;6.994;2022-08-03T14:18:12;25.90;99.90
4324;DHT22;2175;51.018;6.994;2022-08-03T14:20:38;26.20;99.90
4324;DHT22;2175;51.018;6.994;2022-08-03T14:23:04;26.70;99.90
4324;DHT22;2175;51.018;6.994;2022-08-03T14:25:29;26.50;99.90
4324;DHT22;2175;51.018;6.994;2022-08-03T14:27:56;26.40;99.90
4324;DHT22;2175;51.018;6.994;2022-08-03T14:30:21;26.40;99.90
4324;DHT22;2175;51.018;6.994;2022-08-03T14:32:47;26.40;99.90
4324;DHT22;2175;51.018;6.994;2022-08-03T14:35:13;26.30;99.90
4324;DHT22;2175;51.018;6.994;2022-08-03T14:37:38;26.00;99.90
4324;DHT22;2175;51.018;6.994;2022-08-03T14:40:05;26.10;99.90
4324;DHT22;2175;51.018;6.994;2022-08-03T14:42:30;26.00;99.90
4324;DHT22;2175;51.018;6.994;2022-08-03T14:44:56;25.90;99.90
4324;DHT22;2175;51.018;6.994;2022-08-03T14:47:22;25.90;99.90
4324;DHT22;2175;51.018;6.994;2022-08-03T14:49:47;25.90;99.90
4324;DHT22;2175;51.018;6.994;2022-08-03T14:52:13;25.80;99.90
4324;DHT22;2175;51.018;6.994;2022-08-03T14:54:39;25.60;99.90
4324;DHT22;2175;51.018;6.994;2022-08-03T14:57:04;25.70;99.90
4324;DHT22;2175;51.018;6.994;2022-08-03T14:59:30;25.90;99.90
4324;DHT22;2175;51.018;6.994;2022-08-03T15:01:56;26.20;99.90
4324;DHT22;2175;51.018;6.994;2022-08-03T15:04:21;26.30;99.90
4324;DHT22;2175;51.018;6.994;2022-08-03T15:06:47;26.40;99.90
4324;DHT22;2175;51.018;6.994;2022-08-03T15:09:13;26.40;99.90
4324;DHT22;2175;51.018;6.994;2022-08-03T15:11:38;26.80;99.90
4324;DHT22;2175;51.018;6.994;2022-08-03T15:14:04;26.80;99.90
4324;DHT22;2175;51.018;6.994;2022-08-03T15:16:30;26.50;99.90
4324;DHT22;2175;51.018;6.994;2022-08-03T15:18:56;26.60;99.90
4324;DHT22;2175;51.018;6.994;2022-08-03T15:21:22;26.80;99.90
4324;DHT22;2175;51.018;6.994;2022-08-03T15:23:48;27.00;99.90
4324;DHT22;2175;51.018;6.994;2022-08-03T15:26:13;26.80;99.90
4324;DHT22;2175;51.018;6.994;2022-08-03T15:28:39;26.40;99.90
4324;DHT22;2175;51.018;6.994;2022-08-03T15:31:05;26.20;99.90
4324;DHT22;2175;51.018;6.994;2022-08-03T15:33:31;25.90;99.90
4324;DHT22;2175;51.018;6.994;2022-08-03T15:35:56;25.80;99.90
4324;DHT22;2175;51.018;6.994;2022-08-03T15:38:24;25.60;99.90
4324;DHT22;2175;51.018;6.994;2022-08-03T15:40:50;25.60;99.90
4324;DHT22;2175;51.018;6.994;2022-08-03T15:43:20;25.60;99.90
4324;DHT22;2175;51.018;6.994;2022-08-03T15:45:45;25.70;99.90
4324;DHT22;2175;51.018;6.994;2022-08-03T15:48:11;25.80;99.90
4324;DHT22;2175;51.018;6.994;2022-08-03T15:50:37;25.90;99.90
4324;DHT22;2175;51.018;6.994;2022-08-03T15:53:03;25.90;99.90
4324;DHT22;2175;51.018;6.994;2022-08-03T15:55:29;25.80;99.90
4324;DHT22;2175;51.018;6.994;2022-08-03T15:57:56;25.80;99.90
4324;DHT22;2175;51.018;6.994;2022-08-03T16:00:22;25.70;99.90
4324;DHT22;2175;51.018;6.994;2022-08-03T16:02:48;25.40;99.90
4324;DHT22;2175;51.018;6.994;2022-08-03T16:05:14;25.20;99.90
4324;DHT22;2175;51.018;6.994;2022-08-03T16:07:39;25.50;99.90
4324;DHT22;2175;51.018;6.994;2022-08-03T16:10:11;25.50;99.90
4324;DHT22;2175;51.018;6.994;2022-08-03T16:12:37;25.50;99.90
4324;DHT22;2175;51.018;6.994;2022-08-03T16:15:04;25.60;99.90
4324;DHT22;2175;51.018;6.994;2022-08-03T16:17:30;25.50;99.90
4324;DHT22;2175;51.018;6.994;2022-08-03T16:19:56;25.60;99.90
4324;DHT22;2175;51.018;6.994;2022-08-03T16:22:22;25.80;99.90
4324;DHT22;2175;51.018;6.994;2022-08-03T16:24:48;25.80;99.90
4324;DHT22;2175;51.018;6.994;2022-08-03T16:27:14;25.60;99.90
4324;DHT22;2175;51.018;6.994;2022-08-03T16:29:39;26.00;99.90
4324;DHT22;2175;51.018;6.994;2022-08-03T16:32:05;26.20;99.90
4324;DHT22;2175;51.018;6.994;2022-08-03T16:34:34;26.20;99.90
4324;DHT22;2175;51.018;6.994;2022-08-03T16:37:00;26.00;99.90